createdAt,value
2023-05-19T00:01:29.586Z,3.85
2023-05-19T00:03:59.158Z,3.86
2023-05-19T00:06:31.972Z,3.82
2023-05-19T00:09:02.606Z,3.81
2023-05-19T00:11:30.516Z,3.77
2023-05-19T00:14:00.140Z,3.73
2023-05-19T00:16:28.506Z,3.72
2023-05-19T00:18:57.238Z,3.73
2023-05-19T00:21:24.233Z,3.73
2023-05-19T00:23:51.087Z,3.73
2023-05-19T00:26:18.056Z,3.72
2023-05-19T00:28:54.484Z,3.73
2023-05-19T00:31:21.614Z,3.69
2023-05-19T00:33:48.413Z,3.65
2023-05-19T00:36:15.405Z,3.65
2023-05-19T00:38:42.236Z,3.64
2023-05-19T00:41:09.223Z,3.59
2023-05-19T00:43:36.120Z,3.56
2023-05-19T00:46:03.600Z,3.53
2023-05-19T00:48:30.452Z,3.54
2023-05-19T00:51:02.424Z,3.51
2023-05-19T00:53:29.792Z,3.47
2023-05-19T00:55:57.950Z,3.45
2023-05-19T00:58:29.222Z,3.42
2023-05-19T01:01:04.063Z,3.40
2023-05-19T01:03:32.687Z,3.37
2023-05-19T01:06:05.193Z,3.32
2023-05-19T01:08:33.471Z,3.29
2023-05-19T01:11:00.596Z,3.25
2023-05-19T01:13:28.799Z,3.22
2023-05-19T01:16:30.813Z,3.17
2023-05-19T01:19:11.153Z,3.17
2023-05-19T01:22:22.936Z,3.14
2023-05-19T01:25:23.293Z,3.13
2023-05-19T01:28:30.752Z,3.14
2023-05-19T01:31:00.167Z,3.15
2023-05-19T01:33:29.493Z,3.08
2023-05-19T01:35:56.549Z,3.05
2023-05-19T01:38:25.154Z,3.06
2023-05-19T01:40:52.499Z,2.99
2023-05-19T01:43:22.069Z,2.92
2023-05-19T01:45:49.142Z,2.94
2023-05-19T01:48:16.647Z,2.96
2023-05-19T01:50:45.650Z,2.99
2023-05-19T01:53:12.725Z,2.99
2023-05-19T01:55:49.656Z,2.98
2023-05-19T01:58:43.144Z,2.96
2023-05-19T02:01:25.952Z,2.93
2023-05-19T02:04:18.775Z,2.89
2023-05-19T02:07:03.825Z,2.85
2023-05-19T02:09:53.452Z,2.81
2023-05-19T02:12:29.642Z,2.81
2023-05-19T02:15:06.926Z,2.78
2023-05-19T02:17:36.758Z,2.77
2023-05-19T02:20:04.714Z,2.80
2023-05-19T02:22:31.997Z,2.80
2023-05-19T02:24:58.874Z,2.78
2023-05-19T02:27:26.407Z,2.77
2023-05-19T02:29:53.725Z,2.79
2023-05-19T02:32:21.342Z,2.82
2023-05-19T02:34:48.988Z,2.83
2023-05-19T02:37:16.385Z,2.88
2023-05-19T02:39:43.448Z,2.89
2023-05-19T02:42:12.119Z,2.88
2023-05-19T02:44:39.002Z,2.85
2023-05-19T02:47:05.964Z,2.90
2023-05-19T02:49:36.141Z,2.95
2023-05-19T02:52:04.243Z,2.97
2023-05-19T02:54:31.773Z,2.96
2023-05-19T02:56:59.114Z,3.01
2023-05-19T02:59:26.102Z,3.12
2023-05-19T03:01:55.674Z,3.36
2023-05-19T03:04:22.766Z,3.81
2023-05-19T03:06:50.249Z,3.86
2023-05-19T03:09:17.199Z,3.80
2023-05-19T03:11:44.165Z,3.84
2023-05-19T03:14:12.144Z,3.83
2023-05-19T03:16:41.341Z,3.79
2023-05-19T03:19:09.241Z,3.76
2023-05-19T03:21:36.752Z,3.83
2023-05-19T03:24:03.926Z,3.91
2023-05-19T03:26:30.790Z,4.00
2023-05-19T03:29:00.281Z,4.01
2023-05-19T03:31:27.325Z,4.02
2023-05-19T03:33:54.455Z,4.03
2023-05-19T03:36:22.693Z,4.09
2023-05-19T03:38:49.831Z,4.19
2023-05-19T03:41:16.799Z,4.31
2023-05-19T03:43:43.663Z,4.49
2023-05-19T03:46:10.687Z,4.66
2023-05-19T03:48:57.454Z,4.82
2023-05-19T03:51:44.378Z,4.96
2023-05-19T03:54:27.537Z,5.10
2023-05-19T03:56:54.570Z,5.19
2023-05-19T03:59:21.435Z,5.27
2023-05-19T04:01:48.886Z,5.33
2023-05-19T04:04:15.857Z,5.40
2023-05-19T04:06:42.856Z,5.51
2023-05-19T04:39:45.464Z,7.84
2023-05-19T04:42:14.187Z,8.06
2023-05-19T04:44:41.432Z,8.29
2023-05-19T04:47:09.197Z,8.47
2023-05-19T04:49:39.003Z,8.69
2023-05-19T15:23:56.585Z,10.88
2023-05-19T15:26:23.709Z,10.82
2023-05-19T15:28:52.486Z,10.93
2023-05-19T15:31:19.567Z,10.79
2023-05-19T15:33:47.308Z,10.88
2023-05-19T15:36:16.472Z,10.95
2023-05-19T15:38:43.499Z,10.97
2023-05-19T15:41:10.671Z,11.01
2023-05-19T15:43:37.660Z,11.10
2023-05-19T15:46:05.208Z,11.24
2023-05-19T15:48:32.701Z,11.36
2023-05-19T15:51:01.434Z,11.36
2023-05-19T15:53:28.427Z,11.25
2023-05-19T15:55:57.330Z,11.18
2023-05-19T15:58:24.241Z,11.25
2023-05-19T16:00:51.366Z,11.13
2023-05-19T16:03:18.266Z,11.04
2023-05-19T16:05:45.447Z,11.03
2023-05-19T16:08:12.418Z,10.86
2023-05-19T16:10:39.437Z,10.91
2023-05-19T16:13:06.324Z,11.02
2023-05-19T16:15:33.221Z,10.93
2023-05-19T16:18:00.246Z,11.03
2023-05-19T16:20:29.685Z,11.14
2023-05-19T16:22:57.014Z,11.23
2023-05-19T16:25:24.252Z,11.35
2023-05-19T16:27:51.570Z,11.46
2023-05-19T16:30:18.608Z,11.54
2023-05-19T16:32:45.551Z,11.63
2023-05-19T16:35:12.518Z,11.68
2023-05-19T16:37:39.782Z,11.70
2023-05-19T16:40:07.182Z,11.67
2023-05-19T16:42:34.076Z,11.65
2023-05-19T16:45:01.447Z,11.62
2023-05-19T16:47:28.799Z,11.57
2023-05-19T16:49:55.814Z,11.59
2023-05-19T16:52:23.040Z,11.55
2023-05-19T16:54:49.903Z,11.49
2023-05-19T16:57:16.779Z,11.48
2023-05-19T16:59:43.733Z,11.49
2023-05-19T17:02:10.654Z,11.44
2023-05-19T17:04:37.531Z,11.47
2023-05-19T17:07:04.535Z,11.45
2023-05-19T17:09:31.466Z,11.40
2023-05-19T17:11:58.399Z,11.37
2023-05-19T17:14:25.247Z,11.38
2023-05-19T17:16:52.608Z,11.47
2023-05-19T17:19:19.489Z,11.53
2023-05-19T17:21:46.519Z,11.63
2023-05-19T17:24:13.490Z,11.65
2023-05-19T17:26:40.382Z,11.54
2023-05-19T17:29:07.344Z,11.46
2023-05-19T17:31:34.240Z,11.38
2023-05-19T17:34:01.153Z,11.31
2023-05-19T17:36:34.539Z,11.30
2023-05-19T17:39:01.809Z,11.32
2023-05-19T17:41:28.619Z,11.30
2023-05-19T17:44:01.930Z,11.21
2023-05-19T17:46:34.703Z,11.24
2023-05-19T17:49:02.032Z,11.13
2023-05-19T17:51:30.014Z,11.04
2023-05-19T17:54:00.764Z,11.04
2023-05-19T17:56:32.164Z,11.15
2023-05-19T17:59:00.164Z,11.23
2023-05-19T18:01:27.349Z,11.29
2023-05-19T18:03:54.682Z,11.25
2023-05-19T18:06:22.501Z,11.21
2023-05-19T18:08:52.749Z,11.09
2023-05-19T18:11:21.335Z,11.09
2023-05-19T18:13:48.386Z,11.09
2023-05-19T18:16:15.253Z,11.03
2023-05-19T18:18:50.666Z,10.95
2023-05-19T18:21:18.138Z,10.92
2023-05-19T18:23:45.968Z,10.88
2023-05-19T18:26:13.692Z,10.82
2023-05-19T18:28:41.498Z,10.76
2023-05-19T18:31:09.326Z,10.75
2023-05-19T18:33:36.376Z,10.71
2023-05-19T18:36:03.293Z,10.70
2023-05-19T18:38:30.173Z,10.69
2023-05-19T18:40:57.156Z,10.64
2023-05-19T19:05:04.331Z,10.41
2023-05-19T19:07:34.183Z,10.41
2023-05-19T19:10:08.454Z,10.42
2023-05-19T19:13:00.949Z,10.41
2023-05-19T19:15:28.402Z,10.38
2023-05-19T19:17:55.595Z,10.38
2023-05-19T19:20:22.731Z,10.32
2023-05-19T19:22:50.280Z,10.30
2023-05-19T19:25:17.188Z,10.31
2023-05-19T19:27:44.136Z,10.32
2023-05-19T19:30:11.102Z,10.32
2023-05-19T19:32:38.610Z,10.25
2023-05-19T19:35:06.082Z,10.20
2023-05-19T19:37:33.704Z,10.03
2023-05-19T19:40:00.813Z,9.94
2023-05-19T19:42:27.952Z,9.92
2023-05-19T19:44:55.851Z,9.92
2023-05-19T19:47:22.724Z,9.90
2023-05-19T19:49:49.648Z,9.97
2023-05-19T19:52:17.122Z,9.84
2023-05-19T19:54:44.695Z,9.83
2023-05-19T19:57:11.785Z,9.79
2023-05-19T19:59:38.878Z,9.81
2023-05-19T20:02:05.693Z,9.83
2023-05-19T20:04:32.950Z,9.85
2023-05-19T20:07:09.873Z,9.85
2023-05-19T20:09:36.672Z,9.79
2023-05-19T20:12:03.745Z,9.78
2023-05-19T20:14:31.418Z,9.73
2023-05-19T20:21:46.204Z,9.71
2023-05-19T20:28:24.378Z,9.68
2023-05-19T20:30:52.102Z,9.69
2023-05-19T20:33:20.310Z,9.70
2023-05-19T20:35:52.214Z,9.61
2023-05-19T20:38:19.277Z,9.69
2023-05-19T20:40:48.180Z,9.68
2023-05-19T20:43:15.609Z,9.58
2023-05-19T20:45:45.899Z,9.59
2023-05-19T20:48:16.389Z,9.65
2023-05-19T20:50:45.067Z,9.61
2023-05-19T20:53:11.985Z,9.60
2023-05-19T20:55:39.556Z,9.58
2023-05-19T21:01:08.012Z,9.58
2023-05-19T21:03:35.520Z,9.59
2023-05-19T21:06:02.469Z,9.53
2023-05-19T21:08:29.902Z,9.51
2023-05-19T21:10:56.764Z,9.55
2023-05-19T21:13:24.850Z,9.52
2023-05-19T21:15:52.376Z,9.49
2023-05-19T21:18:19.439Z,9.51
2023-05-19T21:20:46.454Z,9.46
2023-05-19T21:23:13.359Z,9.49
2023-05-19T21:25:40.796Z,9.46
2023-05-19T21:28:09.535Z,9.39
2023-05-19T22:08:02.556Z,9.58
2023-05-19T22:10:29.566Z,9.55
2023-05-19T22:12:57.479Z,9.56
2023-05-19T22:15:24.430Z,9.55
2023-05-19T22:17:51.268Z,9.53
2023-05-19T22:20:21.419Z,9.49
2023-05-19T22:22:48.348Z,9.49
2023-05-19T22:25:15.370Z,9.49
2023-05-19T22:27:42.192Z,9.53
2023-05-19T22:30:09.315Z,9.49
2023-05-19T22:32:36.478Z,9.51
2023-05-19T22:35:03.769Z,9.50
2023-05-19T22:37:30.645Z,9.50
2023-05-19T22:40:01.438Z,9.38
2023-05-19T22:42:28.718Z,9.45
2023-05-19T22:44:55.851Z,9.45
2023-05-19T22:47:22.730Z,9.46
2023-05-19T22:49:50.391Z,9.36
2023-05-19T22:52:17.612Z,9.44
2023-05-19T22:54:44.602Z,9.41
2023-05-19T22:57:11.725Z,9.40
2023-05-19T22:59:38.584Z,9.39
2023-05-19T23:02:06.058Z,9.40
2023-05-19T23:04:33.994Z,9.39
2023-05-19T23:07:01.453Z,9.41
2023-05-19T23:09:28.441Z,9.39
2023-05-19T23:11:55.288Z,9.41
2023-05-19T23:14:22.177Z,9.30
2023-05-19T23:16:49.247Z,9.29
2023-05-19T23:19:17.494Z,9.22
2023-05-19T23:21:48.125Z,9.24
2023-05-19T23:24:16.044Z,9.33
2023-05-19T23:26:46.006Z,9.39
2023-05-19T23:29:13.522Z,9.32
2023-05-19T23:31:44.515Z,9.25
2023-05-19T23:34:11.574Z,9.26
2023-05-19T23:36:38.432Z,9.30
2023-05-19T23:39:05.258Z,9.39
2023-05-19T23:41:32.382Z,9.40
2023-05-19T23:43:59.302Z,9.45
2023-05-19T23:46:26.446Z,9.47
2023-05-19T23:48:53.375Z,9.43
2023-05-19T23:51:20.258Z,9.48
2023-05-19T23:53:47.202Z,9.42
2023-05-19T23:56:14.682Z,9.37
2023-05-19T23:58:41.709Z,9.39
